Time;durP1;ratioP1;P1;durP2;ratioP2;P2;SDS_P1;SDS_P2;PMS_P1;PMS_P2;Temp;Humidity;BMP_temperature;BMP_pressure;BME280_temperature;BME280_humidity;BME280_pressure;Samples;Min_cycle;Max_cycle;Signal;HPM_P1;HPM_P2
2021/08/27 00:01:12;;;;;;;3.50;1.80;;;17.60;53.70;;;;;;5013932;28;20255;-45
2021/08/27 00:03:43;;;;;;;3.25;2.05;;;17.60;53.70;;;;;;5013201;28;20229;-48
2021/08/27 00:06:13;;;;;;;6.05;2.05;;;17.60;53.60;;;;;;5013186;28;20232;-47
2021/08/27 00:08:44;;;;;;;3.42;2.05;;;17.60;53.60;;;;;;5013176;28;20709;-41
2021/08/27 00:11:15;;;;;;;4.15;1.83;;;17.60;53.60;;;;;;5013535;28;20639;-47
2021/08/27 00:13:47;;;;;;;3.03;1.70;;;17.60;53.60;;;;;;5013177;28;20224;-47
2021/08/27 00:16:17;;;;;;;4.35;2.30;;;17.60;53.60;;;;;;5013552;28;20228;-44
2021/08/27 00:18:48;;;;;;;3.10;1.90;;;17.60;53.50;;;;;;5013142;28;20321;-41
2021/08/27 00:21:18;;;;;;;3.45;1.90;;;17.50;53.40;;;;;;5013166;28;20289;-45
2021/08/27 00:23:49;;;;;;;2.47;1.90;;;17.60;53.50;;;;;;5012959;28;20232;-47
2021/08/27 00:26:19;;;;;;;3.13;2.15;;;17.60;53.60;;;;;;5012894;28;20259;-50
2021/08/27 00:28:51;;;;;;;5.07;2.10;;;17.60;53.60;;;;;;5012974;28;20253;-45
2021/08/27 00:31:23;;;;;;;5.32;2.53;;;17.60;53.80;;;;;;5012166;28;20699;-43
2021/08/27 00:33:53;;;;;;;7.97;1.83;;;17.60;54.00;;;;;;5011987;28;20259;-45
2021/08/27 00:36:24;;;;;;;7.05;1.98;;;17.60;54.10;;;;;;5012823;28;20236;-46
2021/08/27 00:38:55;;;;;;;7.93;2.20;;;17.60;54.20;;;;;;5007192;28;20259;-45
2021/08/27 00:41:25;;;;;;;7.38;2.33;;;17.60;54.40;;;;;;5012687;28;20232;-49
2021/08/27 00:43:57;;;;;;;6.60;1.80;;;17.60;54.40;;;;;;5011367;28;20232;-47
2021/08/27 00:46:28;;;;;;;6.13;2.05;;;17.60;54.50;;;;;;5011879;28;20232;-45
2021/08/27 00:48:58;;;;;;;9.27;2.13;;;17.60;54.60;;;;;;5011321;28;20249;-52
2021/08/27 00:51:29;;;;;;;6.15;2.08;;;17.60;54.60;;;;;;5011065;28;20287;-44
2021/08/27 00:53:59;;;;;;;7.50;2.05;;;17.60;54.50;;;;;;5010981;28;20286;-45
2021/08/27 00:56:29;;;;;;;6.55;2.30;;;17.60;54.40;;;;;;5016734;28;20228;-46
2021/08/27 01:01:36;;;;;;;6.45;1.70;;;17.60;55.00;;;;;;4991534;28;20216;-57
2021/08/27 01:04:07;;;;;;;5.25;2.08;;;17.60;55.40;;;;;;4992796;28;20256;-48
2021/08/27 01:06:40;;;;;;;6.82;1.67;;;17.60;55.40;;;;;;4992928;28;20233;-47
2021/08/27 01:09:14;;;;;;;4.30;1.90;;;17.60;55.40;;;;;;4992755;28;20249;-46
2021/08/27 01:11:46;;;;;;;2.92;1.45;;;17.60;55.30;;;;;;4992562;28;20244;-48
2021/08/27 01:14:17;;;;;;;3.28;1.42;;;17.60;55.30;;;;;;4972921;28;20265;-47
2021/08/27 01:16:53;;;;;;;3.95;1.80;;;17.60;55.30;;;;;;4973119;28;20255;-46
2021/08/27 01:19:49;;;;;;;5.35;2.13;;;17.60;55.30;;;;;;4972618;28;20661;-49
2021/08/27 01:22:33;;;;;;;4.28;1.67;;;17.60;55.20;;;;;;4972998;28;20232;-48
2021/08/27 01:25:03;;;;;;;6.32;2.33;;;17.60;55.10;;;;;;4973163;28;20727;-50
2021/08/27 01:27:34;;;;;;;3.75;1.80;;;17.60;55.00;;;;;;4972827;28;20662;-50
2021/08/27 01:30:07;;;;;;;3.47;2.20;;;17.60;55.00;;;;;;4972783;28;20632;-47
2021/08/27 01:32:43;;;;;;;3.92;1.88;;;17.60;55.10;;;;;;4972673;28;20230;-48
2021/08/27 01:35:15;;;;;;;3.13;1.80;;;17.60;55.00;;;;;;4972146;28;20634;-49
2021/08/27 01:37:47;;;;;;;1.60;1.33;;;17.50;54.80;;;;;;4973615;28;20221;-53
2021/08/27 01:40:17;;;;;;;4.15;1.40;;;17.60;54.70;;;;;;4983056;28;20641;-46
2021/08/27 01:42:48;;;;;;;3.90;1.80;;;17.60;54.60;;;;;;4991308;28;20718;-49
2021/08/27 01:45:19;;;;;;;3.88;1.73;;;17.60;54.60;;;;;;4991683;28;20240;-53
2021/08/27 01:47:49;;;;;;;4.03;1.90;;;17.60;54.50;;;;;;4991773;28;20332;-46
2021/08/27 01:50:25;;;;;;;2.83;2.10;;;17.60;54.40;;;;;;4991717;28;20240;-46
2021/08/27 01:52:55;;;;;;;6.70;2.38;;;17.60;54.40;;;;;;4991497;28;20197;-47
2021/08/27 01:55:26;;;;;;;2.85;2.10;;;17.60;55.10;;;;;;4991733;28;20307;-59
2021/08/27 01:57:56;;;;;;;3.55;1.95;;;17.60;55.40;;;;;;4991835;28;20284;-55
2021/08/27 02:00:27;;;;;;;3.75;2.25;;;17.60;55.50;;;;;;5015474;22;20701;-41
2021/08/27 02:02:57;;;;;;;3.83;1.90;;;17.60;55.50;;;;;;5011203;28;20228;-48
2021/08/27 02:05:30;;;;;;;4.10;2.28;;;17.60;55.60;;;;;;5010967;28;20200;-47
2021/08/27 02:08:00;;;;;;;3.22;2.10;;;17.60;55.60;;;;;;5010887;28;20260;-49
2021/08/27 02:10:31;;;;;;;5.03;2.53;;;17.50;55.50;;;;;;5010999;28;20232;-44
2021/08/27 02:13:01;;;;;;;3.05;2.00;;;17.60;55.60;;;;;;5011010;28;20655;-53
2021/08/27 02:15:32;;;;;;;3.40;2.15;;;17.60;55.60;;;;;;5011013;28;20260;-45
2021/08/27 02:18:02;;;;;;;2.60;1.73;;;17.60;55.50;;;;;;5011265;28;20716;-53
2021/08/27 02:20:35;;;;;;;2.38;1.98;;;17.60;55.20;;;;;;5011330;28;20606;-55
2021/08/27 02:23:05;;;;;;;2.75;1.98;;;17.60;55.30;;;;;;5011341;28;20303;-55
2021/08/27 02:25:36;;;;;;;2.70;1.90;;;17.50;55.10;;;;;;5011201;28;20709;-54
2021/08/27 02:28:07;;;;;;;2.10;1.70;;;17.60;55.10;;;;;;5011266;28;20244;-54
2021/08/27 02:30:37;;;;;;;2.85;1.80;;;17.60;55.00;;;;;;5011212;28;20284;-55
2021/08/27 02:33:09;;;;;;;4.00;1.90;;;17.50;54.80;;;;;;5011253;28;20239;-53
2021/08/27 02:35:41;;;;;;;5.75;2.22;;;17.60;55.50;;;;;;5011042;28;20264;-50
2021/08/27 02:38:12;;;;;;;5.60;2.53;;;17.60;55.10;;;;;;5011065;28;20260;-56
2021/08/27 02:40:43;;;;;;;5.05;2.20;;;17.60;55.10;;;;;;5010624;28;20676;-53
2021/08/27 02:43:13;;;;;;;8.70;2.28;;;17.60;55.10;;;;;;5011127;28;20240;-51
2021/08/27 02:45:43;;;;;;;17.23;2.80;;;17.60;55.10;;;;;;5011042;28;20228;-50
2021/08/27 02:48:14;;;;;;;9.15;2.50;;;17.50;55.00;;;;;;5011093;28;20704;-55
2021/08/27 02:50:48;;;;;;;16.02;2.53;;;17.60;55.10;;;;;;5010760;28;20243;-54
2021/08/27 02:53:20;;;;;;;9.07;2.22;;;17.60;55.00;;;;;;5011927;28;20690;-54
2021/08/27 02:55:52;;;;;;;10.43;2.40;;;17.60;55.10;;;;;;5014211;28;20324;-49
2021/08/27 02:58:24;;;;;;;7.95;2.40;;;17.60;55.10;;;;;;5010758;28;20259;-51
2021/08/27 03:00:56;;;;;;;4.70;2.40;;;17.50;55.00;;;;;;5024676;23;20262;-57
2021/08/27 03:03:29;;;;;;;7.70;2.78;;;17.60;55.00;;;;;;5013144;28;20260;-60
2021/08/27 03:06:02;;;;;;;5.38;2.47;;;17.60;55.00;;;;;;5014088;28;20228;-57
2021/08/27 03:08:33;;;;;;;5.43;2.05;;;17.60;54.90;;;;;;5025952;28;20730;-60
2021/08/27 03:11:05;;;;;;;3.50;2.10;;;17.60;54.80;;;;;;5033303;28;20645;-48
2021/08/27 03:13:41;;;;;;;3.53;2.08;;;17.60;54.70;;;;;;5032964;28;20762;-48
2021/08/27 03:16:12;;;;;;;3.97;2.10;;;17.60;54.70;;;;;;5032748;28;20224;-51
2021/08/27 03:18:46;;;;;;;7.22;2.55;;;17.60;54.70;;;;;;5033547;28;20258;-52
2021/08/27 03:21:19;;;;;;;5.32;2.28;;;17.60;54.80;;;;;;5033351;28;20539;-50
2021/08/27 03:23:51;;;;;;;5.00;2.33;;;17.70;54.90;;;;;;5032852;28;20192;-56
2021/08/27 03:26:22;;;;;;;3.58;2.20;;;17.60;54.80;;;;;;5032823;28;20242;-51
2021/08/27 03:28:54;;;;;;;4.35;2.50;;;17.60;54.80;;;;;;5032789;28;20212;-54
2021/08/27 03:31:26;;;;;;;3.60;1.85;;;17.60;54.80;;;;;;5033164;28;20200;-53
2021/08/27 03:33:58;;;;;;;6.90;1.90;;;17.70;54.80;;;;;;5032113;28;20675;-54
2021/08/27 03:36:30;;;;;;;4.15;2.13;;;17.60;54.80;;;;;;5033133;28;20224;-48
2021/08/27 03:39:01;;;;;;;6.53;2.55;;;17.60;54.80;;;;;;5032183;28;20247;-46
2021/08/27 03:41:33;;;;;;;2.95;2.10;;;17.60;54.80;;;;;;5033298;28;20581;-48
2021/08/27 03:44:03;;;;;;;3.15;1.90;;;17.70;54.80;;;;;;5032593;28;20611;-54
2021/08/27 03:46:34;;;;;;;3.30;2.10;;;17.70;54.80;;;;;;5033489;28;20259;-58
2021/08/27 03:49:04;;;;;;;3.92;1.90;;;17.70;54.70;;;;;;5032340;28;20274;-50
2021/08/27 03:51:37;;;;;;;3.22;1.83;;;17.70;54.60;;;;;;5032368;28;20612;-51
2021/08/27 03:54:07;;;;;;;3.60;1.92;;;17.70;54.60;;;;;;5032451;28;20276;-48
2021/08/27 03:56:37;;;;;;;5.55;2.30;;;17.70;54.50;;;;;;5032228;28;20645;-51
2021/08/27 04:02:26;;;;;;;3.75;2.03;;;17.70;54.50;;;;;;4992063;28;20217;-53
2021/08/27 04:05:11;;;;;;;3.75;2.00;;;17.70;54.50;;;;;;4991720;28;20330;-46
2021/08/27 04:07:43;;;;;;;4.75;2.53;;;17.70;54.50;;;;;;4992467;28;20229;-56
2021/08/27 04:10:14;;;;;;;2.20;2.00;;;17.70;54.50;;;;;;4992154;28;20259;-55
2021/08/27 04:12:45;;;;;;;3.42;1.80;;;17.70;54.50;;;;;;4992972;28;20201;-52
2021/08/27 04:15:17;;;;;;;2.50;1.80;;;17.70;54.60;;;;;;4992876;28;20268;-48
2021/08/27 04:17:47;;;;;;;2.33;2.08;;;17.70;54.60;;;;;;4992583;28;20260;-56
2021/08/27 04:20:17;;;;;;;2.83;1.90;;;17.70;54.70;;;;;;4992838;28;20229;-54
2021/08/27 04:22:50;;;;;;;4.05;2.28;;;17.70;54.70;;;;;;4992256;28;20496;-56
2021/08/27 04:25:20;;;;;;;2.85;1.80;;;17.70;54.70;;;;;;4992401;28;20664;-50
2021/08/27 04:27:51;;;;;;;5.28;2.25;;;17.70;54.70;;;;;;4990962;28;20276;-44
2021/08/27 04:30:21;;;;;;;4.40;2.10;;;17.70;54.60;;;;;;4992471;28;20237;-44
2021/08/27 04:32:52;;;;;;;2.85;1.95;;;17.70;54.50;;;;;;4992729;28;20236;-56
2021/08/27 04:35:22;;;;;;;4.57;2.13;;;17.70;54.40;;;;;;4991786;28;20280;-52
2021/08/27 04:37:55;;;;;;;2.17;1.98;;;17.70;54.40;;;;;;4991200;28;20225;-55
2021/08/27 04:40:25;;;;;;;4.18;2.08;;;17.70;55.10;;;;;;4992262;28;20194;-50
2021/08/27 04:42:56;;;;;;;4.22;2.42;;;17.70;54.50;;;;;;4992753;28;20197;-51
2021/08/27 04:45:26;;;;;;;3.88;2.25;;;17.70;54.60;;;;;;4991094;28;20201;-54
2021/08/27 04:47:57;;;;;;;3.33;1.88;;;17.70;54.60;;;;;;4993227;28;20217;-56
2021/08/27 04:50:28;;;;;;;2.42;2.10;;;17.70;54.60;;;;;;4992164;28;20233;-57
2021/08/27 04:53:00;;;;;;;3.75;2.30;;;17.70;54.60;;;;;;4992638;28;20205;-54
2021/08/27 04:55:30;;;;;;;3.08;2.13;;;17.70;54.60;;;;;;4991871;28;20228;-50
2021/08/27 04:58:01;;;;;;;3.58;2.22;;;17.70;54.60;;;;;;4992773;28;20253;-44
2021/08/27 05:00:31;;;;;;;2.28;2.08;;;17.70;54.70;;;;;;4990940;28;20202;-55
2021/08/27 05:03:02;;;;;;;3.45;2.45;;;17.80;54.80;;;;;;4991606;28;20240;-51
2021/08/27 05:05:34;;;;;;;2.55;2.05;;;17.70;54.70;;;;;;4991871;28;20205;-46
2021/08/27 05:08:06;;;;;;;3.20;2.17;;;17.70;54.70;;;;;;4991639;28;20705;-55
2021/08/27 05:10:37;;;;;;;3.17;1.98;;;17.80;54.60;;;;;;4991575;28;20240;-53
2021/08/27 05:13:07;;;;;;;2.95;2.13;;;17.80;54.60;;;;;;4992166;28;20193;-50
2021/08/27 05:15:38;;;;;;;3.20;2.03;;;17.70;54.50;;;;;;4992005;28;20256;-54
2021/08/27 05:18:08;;;;;;;3.42;2.20;;;17.70;54.50;;;;;;4991471;28;20276;-53
2021/08/27 05:20:39;;;;;;;3.95;2.20;;;17.80;54.60;;;;;;4992063;28;20197;-49
2021/08/27 05:23:11;;;;;;;2.33;2.13;;;17.80;54.60;;;;;;4990927;28;20236;-43
2021/08/27 05:25:42;;;;;;;3.38;2.10;;;17.70;54.50;;;;;;4991609;28;20201;-53
2021/08/27 05:28:12;;;;;;;2.40;2.10;;;17.70;54.50;;;;;;4991389;28;20532;-46
2021/08/27 05:30:43;;;;;;;3.20;2.42;;;17.70;54.60;;;;;;4991509;28;20205;-56
2021/08/27 05:33:13;;;;;;;4.00;2.13;;;17.70;54.60;;;;;;4991781;28;20237;-53
2021/08/27 05:35:43;;;;;;;2.95;2.30;;;17.70;54.60;;;;;;4991143;28;20296;-56
2021/08/27 05:38:16;;;;;;;3.20;2.25;;;17.70;54.60;;;;;;4990592;28;20214;-48
2021/08/27 05:40:46;;;;;;;2.85;1.95;;;17.70;54.50;;;;;;4990953;28;20449;-56
2021/08/27 05:43:17;;;;;;;2.78;2.15;;;17.70;54.50;;;;;;4991324;28;20744;-56
2021/08/27 05:45:47;;;;;;;2.90;2.22;;;17.70;54.50;;;;;;4991310;28;20209;-48
2021/08/27 05:48:18;;;;;;;2.88;2.08;;;17.70;54.50;;;;;;4991804;28;20232;-56
2021/08/27 05:50:48;;;;;;;2.75;2.40;;;17.70;54.60;;;;;;4990011;28;20233;-56
2021/08/27 05:53:20;;;;;;;3.05;2.20;;;17.70;54.60;;;;;;4991617;28;20201;-55
2021/08/27 05:55:51;;;;;;;2.30;2.10;;;17.70;54.60;;;;;;4990460;28;20217;-46
2021/08/27 05:58:22;;;;;;;2.90;2.20;;;17.70;54.50;;;;;;4989873;28;20252;-49
2021/08/27 06:00:52;;;;;;;2.10;1.90;;;17.70;54.50;;;;;;4992058;28;20201;-52
2021/08/27 06:03:23;;;;;;;4.15;2.45;;;17.70;54.50;;;;;;4991038;28;20657;-57
2021/08/27 06:05:53;;;;;;;2.70;2.50;;;17.70;54.40;;;;;;4991669;28;20385;-41
2021/08/27 06:08:25;;;;;;;4.30;2.25;;;17.70;54.40;;;;;;4991252;28;20213;-57
2021/08/27 06:10:56;;;;;;;3.38;2.45;;;17.70;54.30;;;;;;4990691;28;20197;-57
2021/08/27 06:13:26;;;;;;;2.78;2.20;;;17.70;54.30;;;;;;4991035;28;20268;-57
2021/08/27 06:15:57;;;;;;;4.50;2.47;;;17.70;54.30;;;;;;4991977;28;20280;-56
2021/08/27 06:18:27;;;;;;;2.70;2.50;;;17.70;54.40;;;;;;4990522;28;20213;-53
2021/08/27 06:20:58;;;;;;;2.70;2.47;;;17.70;54.40;;;;;;4991464;28;20194;-43
2021/08/27 06:23:30;;;;;;;2.67;2.40;;;17.60;54.30;;;;;;4991163;28;20656;-44
2021/08/27 06:26:00;;;;;;;2.30;2.10;;;17.60;54.40;;;;;;4990551;28;20268;-48
2021/08/27 06:28:31;;;;;;;3.33;2.47;;;17.70;54.30;;;;;;4991433;28;20282;-45
2021/08/27 06:31:01;;;;;;;3.00;2.70;;;17.70;54.30;;;;;;4993966;28;20237;-41
2021/08/27 06:33:32;;;;;;;2.60;2.40;;;17.70;54.40;;;;;;4994460;28;20237;-44
2021/08/27 06:36:02;;;;;;;4.40;2.35;;;17.70;54.30;;;;;;4994113;28;20729;-47
2021/08/27 06:38:34;;;;;;;2.65;2.45;;;17.60;54.30;;;;;;4994320;28;20217;-49
2021/08/27 06:41:06;;;;;;;3.40;2.53;;;17.60;54.30;;;;;;4994656;28;20288;-53
2021/08/27 06:43:37;;;;;;;2.85;2.45;;;17.60;54.30;;;;;;4995434;28;20197;-42
2021/08/27 06:46:09;;;;;;;2.90;2.35;;;17.60;54.30;;;;;;4994584;28;20229;-50
2021/08/27 06:48:39;;;;;;;3.30;2.42;;;17.60;54.30;;;;;;4993786;28;20277;-45
2021/08/27 06:51:09;;;;;;;2.92;2.33;;;17.60;54.30;;;;;;4992521;28;20256;-50
2021/08/27 06:53:42;;;;;;;2.75;2.45;;;17.60;54.30;;;;;;4992353;28;20654;-52
2021/08/27 06:56:12;;;;;;;2.47;2.10;;;17.60;54.30;;;;;;4994425;28;20662;-47
2021/08/27 06:58:43;;;;;;;3.20;2.90;;;17.60;54.20;;;;;;4994166;28;20701;-48
2021/08/27 07:01:13;;;;;;;3.25;2.90;;;17.60;54.20;;;;;;5004490;23;20751;-51
2021/08/27 07:03:44;;;;;;;3.25;2.75;;;17.60;54.30;;;;;;4977195;28;20619;-50
2021/08/27 07:06:14;;;;;;;3.00;2.70;;;17.60;54.40;;;;;;4975082;28;20195;-50
2021/08/27 07:08:47;;;;;;;3.20;2.83;;;17.60;54.40;;;;;;4974996;28;20249;-50
2021/08/27 07:11:18;;;;;;;3.03;2.45;;;17.60;54.40;;;;;;4973781;28;20240;-50
2021/08/27 07:13:48;;;;;;;2.67;2.47;;;17.60;54.40;;;;;;4974545;28;20283;-48
2021/08/27 07:16:18;;;;;;;2.70;2.50;;;17.60;54.40;;;;;;4974399;28;20226;-49
2021/08/27 07:18:49;;;;;;;3.00;2.80;;;17.60;54.40;;;;;;4994030;28;20260;-51
2021/08/27 07:21:19;;;;;;;2.97;2.65;;;17.60;54.40;;;;;;4994298;28;20303;-51
2021/08/27 07:23:52;;;;;;;3.35;2.78;;;17.60;54.40;;;;;;4994357;28;20225;-47
2021/08/27 07:26:22;;;;;;;2.83;2.58;;;17.60;54.40;;;;;;4993367;28;20225;-52
2021/08/27 07:28:53;;;;;;;3.38;2.75;;;17.60;54.40;;;;;;4994258;28;20221;-55
2021/08/27 07:31:23;;;;;;;2.55;2.35;;;17.60;54.50;;;;;;4994330;28;20194;-46
2021/08/27 07:33:54;;;;;;;3.80;2.47;;;17.60;54.60;;;;;;4994260;28;20244;-49
2021/08/27 07:36:25;;;;;;;3.55;2.60;;;17.50;54.50;;;;;;4993876;28;20264;-52
2021/08/27 07:38:58;;;;;;;3.00;2.65;;;17.50;55.20;;;;;;4993475;28;20291;-47
2021/08/27 07:41:28;;;;;;;3.80;2.67;;;17.50;54.60;;;;;;4992525;28;20237;-53
2021/08/27 07:43:59;;;;;;;3.10;2.90;;;17.50;54.70;;;;;;4993601;28;20233;-52
2021/08/27 07:46:29;;;;;;;3.33;2.53;;;17.50;54.60;;;;;;4993383;28;20282;-47
2021/08/27 07:48:59;;;;;;;3.92;2.70;;;17.50;54.50;;;;;;4992837;28;20272;-47
2021/08/27 07:51:30;;;;;;;5.00;3.30;;;17.60;54.60;;;;;;4993492;28;20225;-46
2021/08/27 07:54:02;;;;;;;3.00;2.58;;;17.50;54.60;;;;;;4993270;28;20237;-49
2021/08/27 07:56:33;;;;;;;3.17;2.90;;;17.50;54.60;;;;;;4992836;28;20261;-49
2021/08/27 07:59:03;;;;;;;2.75;2.55;;;17.50;54.60;;;;;;5001862;28;20244;-53
2021/08/27 08:01:34;;;;;;;3.05;2.75;;;17.50;54.50;;;;;;5008833;23;20230;-51
2021/08/27 08:04:05;;;;;;;3.70;3.10;;;17.50;54.50;;;;;;4993597;28;20696;-53
2021/08/27 08:06:36;;;;;;;3.30;3.00;;;17.50;54.50;;;;;;4993597;28;20201;-42
2021/08/27 08:09:09;;;;;;;3.47;3.13;;;17.50;54.60;;;;;;5010145;28;20287;-45
2021/08/27 08:11:39;;;;;;;3.45;3.10;;;17.50;54.60;;;;;;5013613;28;20280;-50
2021/08/27 08:14:09;;;;;;;3.45;3.15;;;17.50;54.60;;;;;;5013067;28;20239;-53
2021/08/27 08:16:40;;;;;;;4.03;2.92;;;17.50;54.60;;;;;;5013245;28;20315;-56
2021/08/27 08:19:11;;;;;;;3.22;2.90;;;17.50;54.60;;;;;;5012859;28;20259;-56
2021/08/27 08:21:42;;;;;;;3.13;2.78;;;17.50;54.60;;;;;;5012892;28;20197;-56
2021/08/27 08:24:14;;;;;;;3.55;2.92;;;17.50;54.60;;;;;;5012562;28;20197;-45
2021/08/27 08:26:45;;;;;;;3.10;2.80;;;17.50;54.60;;;;;;5012817;28;20614;-48
2021/08/27 08:29:15;;;;;;;3.20;2.90;;;17.40;54.60;;;;;;5013060;28;20615;-49
2021/08/27 08:31:46;;;;;;;3.33;3.03;;;17.40;54.60;;;;;;5013148;28;20228;-51
2021/08/27 08:34:16;;;;;;;4.05;3.28;;;17.40;55.20;;;;;;5013187;28;20204;-49
2021/08/27 08:36:47;;;;;;;3.75;3.22;;;17.40;54.60;;;;;;5013126;28;20311;-53
2021/08/27 08:39:19;;;;;;;4.13;3.13;;;17.40;54.60;;;;;;5012355;28;20312;-53
2021/08/27 08:41:50;;;;;;;3.58;3.10;;;17.40;54.60;;;;;;4994449;28;20236;-46
2021/08/27 08:44:20;;;;;;;3.53;3.22;;;17.40;54.50;;;;;;4992816;28;20303;-55
2021/08/27 08:46:51;;;;;;;3.90;3.50;;;17.40;54.60;;;;;;4993568;28;20243;-56
2021/08/27 08:49:22;;;;;;;3.40;2.95;;;17.40;54.60;;;;;;4993418;28;20252;-52
2021/08/27 08:51:52;;;;;;;3.80;3.33;;;17.40;54.70;;;;;;4993131;28;20244;-43
2021/08/27 08:54:25;;;;;;;5.70;4.05;;;17.40;54.70;;;;;;4993193;28;20663;-49
2021/08/27 08:56:55;;;;;;;3.88;3.47;;;17.40;54.80;;;;;;4992677;28;20317;-43
2021/08/27 08:59:29;;;;;;;4.45;3.58;;;17.40;54.80;;;;;;4993085;28;20225;-44
2021/08/27 09:01:59;;;;;;;4.30;3.72;;;17.40;54.80;;;;;;4992484;28;20240;-56
2021/08/27 09:04:30;;;;;;;4.60;3.63;;;17.40;54.70;;;;;;4992783;28;20232;-41
2021/08/27 09:07:00;;;;;;;6.18;3.53;;;17.40;54.70;;;;;;4992567;28;20244;-51
2021/08/27 09:09:35;;;;;;;4.82;3.60;;;17.40;54.70;;;;;;4995059;28;20229;-50
2021/08/27 09:12:21;;;;;;;4.07;3.70;;;17.40;54.70;;;;;;4990660;28;20209;-50
2021/08/27 09:15:02;;;;;;;4.25;3.65;;;17.40;54.80;;;;;;4992820;28;20255;-51
2021/08/27 09:17:36;;;;;;;6.40;3.92;;;17.40;54.80;;;;;;4990470;28;20221;-42
2021/08/27 09:20:07;;;;;;;7.28;4.07;;;17.40;55.30;;;;;;4992252;28;20239;-53
2021/08/27 09:22:49;;;;;;;4.53;3.30;;;17.40;54.80;;;;;;4991706;28;20248;-41
2021/08/27 09:25:21;;;;;;;5.47;3.75;;;17.40;54.70;;;;;;4992054;28;20315;-55
2021/08/27 09:28:08;;;;;;;4.47;3.25;;;17.30;54.60;;;;;;4991960;28;20636;-55
2021/08/27 09:30:40;;;;;;;4.72;3.30;;;17.40;54.70;;;;;;4991988;28;20201;-44
2021/08/27 09:33:12;;;;;;;4.07;3.35;;;17.40;54.70;;;;;;4992013;28;20204;-46
2021/08/27 09:35:42;;;;;;;4.90;3.60;;;17.30;54.60;;;;;;4991648;28;20284;-43
2021/08/27 09:38:17;;;;;;;4.25;3.17;;;17.30;54.60;;;;;;4991291;28;20659;-45
2021/08/27 09:40:50;;;;;;;3.20;2.90;;;17.30;54.60;;;;;;4989027;28;20196;-47
2021/08/27 09:43:27;;;;;;;3.20;2.90;;;17.30;54.70;;;;;;4991693;28;20201;-52
2021/08/27 09:45:57;;;;;;;3.50;3.20;;;17.30;54.60;;;;;;4991479;28;20197;-45
2021/08/27 09:48:28;;;;;;;4.28;3.60;;;17.30;54.60;;;;;;4991642;28;20577;-49
2021/08/27 09:50:58;;;;;;;3.55;2.97;;;17.30;54.60;;;;;;4991243;28;20599;-49
2021/08/27 09:53:43;;;;;;;4.20;3.60;;;17.30;54.70;;;;;;4991752;28;20627;-50
2021/08/27 09:56:16;;;;;;;3.42;3.13;;;17.30;54.70;;;;;;4991711;28;20197;-49
2021/08/27 09:58:54;;;;;;;3.78;3.25;;;17.30;54.60;;;;;;4991379;28;20253;-44
2021/08/27 10:01:25;;;;;;;3.85;2.90;;;17.30;54.60;;;;;;5016929;23;20224;-56
2021/08/27 10:04:07;;;;;;;4.32;3.25;;;17.30;54.60;;;;;;5009949;28;20231;-47
2021/08/27 10:06:38;;;;;;;3.05;2.75;;;17.30;54.60;;;;;;5010504;28;20204;-51
2021/08/27 10:09:08;;;;;;;4.28;3.10;;;17.30;54.60;;;;;;5010887;28;20348;-48
2021/08/27 10:11:40;;;;;;;3.10;2.90;;;17.20;54.60;;;;;;5011395;28;20192;-48
2021/08/27 10:14:11;;;;;;;3.53;2.90;;;17.20;54.60;;;;;;5011590;28;20232;-47
2021/08/27 10:16:41;;;;;;;3.95;2.83;;;17.20;54.60;;;;;;5011744;28;20240;-52
2021/08/27 10:19:12;;;;;;;3.47;2.90;;;17.20;54.60;;;;;;5011355;28;20227;-50
2021/08/27 10:21:42;;;;;;;3.30;3.00;;;17.20;54.60;;;;;;5011463;28;20715;-53
2021/08/27 10:24:13;;;;;;;3.63;3.10;;;17.20;54.60;;;;;;5011315;28;20341;-51
2021/08/27 10:26:45;;;;;;;4.25;3.10;;;17.20;54.70;;;;;;5011287;28;20197;-55
2021/08/27 10:29:16;;;;;;;3.90;3.08;;;17.20;54.60;;;;;;5011443;28;20256;-50
2021/08/27 10:31:47;;;;;;;3.65;2.65;;;17.10;54.50;;;;;;5010973;28;20233;-48
2021/08/27 10:34:17;;;;;;;3.20;2.90;;;17.20;54.60;;;;;;5010748;28;20197;-48
2021/08/27 10:37:05;;;;;;;3.20;2.90;;;17.20;54.60;;;;;;5011231;28;22106;-48
2021/08/27 10:39:52;;;;;;;4.05;3.25;;;17.10;54.60;;;;;;5011254;28;20251;-49
2021/08/27 10:42:51;;;;;;;3.17;2.80;;;17.20;54.60;;;;;;5010953;28;20197;-51
2021/08/27 10:46:02;;;;;;;3.20;2.65;;;17.10;54.60;;;;;;4987857;28;20204;-47
2021/08/27 10:48:32;;;;;;;3.45;2.83;;;17.20;54.60;;;;;;4976694;28;20225;-52
2021/08/27 10:51:03;;;;;;;3.33;2.80;;;17.20;54.50;;;;;;5011071;28;20201;-51
2021/08/27 10:53:34;;;;;;;4.28;2.85;;;17.10;54.50;;;;;;5011223;28;20240;-47
2021/08/27 10:56:05;;;;;;;2.70;2.50;;;17.10;54.50;;;;;;5010872;28;20271;-47
2021/08/27 10:58:48;;;;;;;3.05;2.50;;;17.10;54.50;;;;;;5010088;28;20260;-47
2021/08/27 11:01:38;;;;;;;2.80;2.50;;;17.10;54.60;;;;;;5022899;22;20232;-46
2021/08/27 11:04:16;;;;;;;3.85;3.03;;;17.10;54.60;;;;;;5007795;28;20228;-44
2021/08/27 11:06:52;;;;;;;2.90;2.60;;;17.10;54.50;;;;;;5001959;28;20520;-43
2021/08/27 11:09:26;;;;;;;3.40;2.40;;;17.10;54.50;;;;;;4991451;28;20596;-50
2021/08/27 11:12:13;;;;;;;2.65;2.45;;;17.10;54.60;;;;;;4991315;28;20197;-46
2021/08/27 11:14:45;;;;;;;4.50;2.40;;;17.00;54.60;;;;;;4992739;28;20205;-54
2021/08/27 11:17:17;;;;;;;3.30;2.65;;;17.10;54.60;;;;;;4994034;28;20265;-55
2021/08/27 11:19:49;;;;;;;2.92;2.40;;;17.10;54.60;;;;;;4993668;28;20268;-46
2021/08/27 11:22:27;;;;;;;2.95;2.50;;;17.00;54.60;;;;;;4994141;28;20643;-52
2021/08/27 11:25:17;;;;;;;2.88;2.42;;;17.10;54.60;;;;;;4994393;28;20229;-42
2021/08/27 11:28:12;;;;;;;2.78;2.30;;;17.00;54.60;;;;;;4994097;28;20712;-50
2021/08/27 11:30:45;;;;;;;3.03;2.60;;;17.10;54.60;;;;;;4994640;28;20233;-41
2021/08/27 11:33:52;;;;;;;3.47;2.70;;;17.00;54.60;;;;;;4994479;28;20280;-43
2021/08/27 11:36:22;;;;;;;2.47;2.10;;;17.00;54.60;;;;;;4994389;28;20202;-42
2021/08/27 11:38:59;;;;;;;2.80;2.20;;;17.00;54.60;;;;;;4994376;28;20284;-54
2021/08/27 11:41:30;;;;;;;2.83;2.60;;;17.00;54.60;;;;;;4993633;28;20236;-49
2021/08/27 11:44:11;;;;;;;3.92;2.72;;;17.00;54.60;;;;;;4993995;28;20247;-41
2021/08/27 11:46:49;;;;;;;3.80;2.53;;;17.00;54.60;;;;;;4993684;28;20198;-45
2021/08/27 11:49:38;;;;;;;3.03;2.25;;;17.00;54.60;;;;;;4993866;28;20586;-52
2021/08/27 11:52:28;;;;;;;3.55;2.80;;;17.00;54.60;;;;;;4993077;28;20353;-46
2021/08/27 11:55:05;;;;;;;2.72;2.42;;;17.00;54.60;;;;;;4993976;28;20198;-43
2021/08/27 11:57:35;;;;;;;2.72;2.50;;;17.00;54.60;;;;;;4993292;28;20345;-48
2021/08/27 12:00:08;;;;;;;2.72;2.28;;;17.00;54.60;;;;;;4994173;28;20248;-41
2021/08/27 12:02:40;;;;;;;3.45;2.50;;;17.00;54.60;;;;;;4993133;28;20252;-56
2021/08/27 12:05:12;;;;;;;2.17;1.90;;;16.90;54.60;;;;;;4993700;28;20233;-54
2021/08/27 12:07:52;;;;;;;2.22;2.03;;;16.90;55.20;;;;;;4992754;28;20218;-43
2021/08/27 12:10:23;;;;;;;2.65;2.40;;;17.00;54.70;;;;;;4993572;28;20284;-42
2021/08/27 12:12:53;;;;;;;2.38;2.17;;;17.00;54.60;;;;;;4992751;28;20297;-56
2021/08/27 12:15:24;;;;;;;2.92;2.60;;;17.00;54.70;;;;;;4993590;28;20650;-48
2021/08/27 12:17:57;;;;;;;2.50;2.25;;;16.90;54.60;;;;;;4993161;28;20761;-55
2021/08/27 12:20:28;;;;;;;2.60;2.40;;;16.90;54.70;;;;;;4993436;28;20232;-46
2021/08/27 12:23:05;;;;;;;2.40;2.20;;;16.90;54.60;;;;;;4993076;28;20720;-55
2021/08/27 12:25:40;;;;;;;2.70;2.10;;;16.90;54.60;;;;;;4992917;28;20683;-44
2021/08/27 12:28:10;;;;;;;2.25;1.92;;;16.90;54.70;;;;;;4994874;28;20224;-47
2021/08/27 12:30:46;;;;;;;2.90;2.25;;;16.90;54.70;;;;;;5012435;28;20726;-43
2021/08/27 12:33:19;;;;;;;2.42;2.17;;;16.90;54.70;;;;;;5012510;28;20197;-52
2021/08/27 12:35:49;;;;;;;1.90;1.70;;;16.90;54.70;;;;;;5011323;28;20629;-43
2021/08/27 12:38:20;;;;;;;2.22;2.03;;;16.90;54.70;;;;;;5009328;28;20667;-50
2021/08/27 12:40:50;;;;;;;2.22;1.90;;;16.90;54.70;;;;;;5012719;28;20275;-55
2021/08/27 12:43:24;;;;;;;2.20;2.00;;;16.90;54.70;;;;;;5012612;28;20259;-55
2021/08/27 12:45:55;;;;;;;2.50;2.10;;;16.80;54.60;;;;;;5012512;28;20235;-55
2021/08/27 12:48:27;;;;;;;2.55;1.92;;;16.90;54.70;;;;;;5012773;28;20643;-53
2021/08/27 12:50:58;;;;;;;2.45;1.80;;;16.80;54.60;;;;;;5012415;28;20232;-56
2021/08/27 12:53:32;;;;;;;2.45;2.10;;;16.80;54.60;;;;;;5012256;28;20675;-44
2021/08/27 12:56:12;;;;;;;2.22;1.95;;;16.80;54.60;;;;;;4995431;28;20638;-54
2021/08/27 12:58:43;;;;;;;2.65;2.30;;;16.80;54.60;;;;;;4992447;28;20261;-56
2021/08/27 13:01:17;;;;;;;2.90;1.98;;;16.80;54.60;;;;;;4992806;28;20245;-41
2021/08/27 13:03:49;;;;;;;2.47;1.98;;;16.80;54.60;;;;;;4992720;28;20696;-48
2021/08/27 13:06:36;;;;;;;2.78;2.47;;;16.80;54.60;;;;;;4992893;28;20198;-56
2021/08/27 13:09:07;;;;;;;2.72;1.98;;;16.80;54.70;;;;;;5000369;28;20659;-54
2021/08/27 13:11:51;;;;;;;2.30;2.10;;;16.80;54.60;;;;;;4992458;28;20241;-42
2021/08/27 13:14:23;;;;;;;2.75;2.38;;;16.80;54.70;;;;;;4991836;28;20248;-40
2021/08/27 13:16:57;;;;;;;2.50;2.28;;;16.80;54.60;;;;;;4992522;28;20619;-47
2021/08/27 13:19:44;;;;;;;2.58;2.38;;;16.80;54.70;;;;;;4991923;28;20259;-43